createdAt,value
2023-07-25T00:00:00.703Z,3.63
2023-07-25T00:03:03.678Z,3.55
2023-07-25T00:06:06.184Z,3.42
2023-07-25T00:09:09.289Z,3.78
2023-07-25T00:12:11.911Z,3.58
2023-07-25T00:15:14.806Z,3.80
2023-07-25T00:18:17.200Z,4.10
2023-07-25T00:21:19.613Z,4.07
2023-07-25T00:24:22.473Z,3.90
2023-07-25T00:27:24.908Z,4.05
2023-07-25T00:30:27.746Z,3.67
2023-07-25T00:33:30.143Z,4.10
2023-07-25T00:36:32.777Z,3.58
2023-07-25T00:39:35.167Z,4.20
2023-07-25T00:42:37.744Z,3.78
2023-07-25T00:45:40.278Z,3.90
2023-07-25T00:48:45.143Z,4.03
2023-07-25T00:51:47.561Z,4.25
2023-07-25T00:54:52.054Z,3.50
2023-07-25T00:57:55.555Z,4.22
2023-07-25T01:01:08.203Z,3.93
2023-07-25T01:04:10.759Z,3.45
2023-07-25T01:07:17.288Z,3.42
2023-07-25T01:10:19.675Z,3.42
2023-07-25T01:13:23.533Z,3.50
2023-07-25T01:16:31.098Z,3.43
2023-07-25T01:19:35.709Z,3.88
2023-07-25T01:22:39.447Z,3.95
2023-07-25T01:25:47.435Z,3.80
2023-07-25T01:28:51.084Z,4.45
2023-07-25T01:32:02.672Z,4.77
2023-07-25T01:35:05.814Z,4.53
2023-07-25T01:38:08.203Z,4.50
2023-07-25T01:41:10.629Z,4.43
2023-07-25T01:44:12.977Z,4.55
2023-07-25T01:47:15.553Z,4.17
2023-07-25T01:50:18.346Z,5.10
2023-07-25T01:53:20.862Z,4.30
2023-07-25T01:56:23.226Z,4.10
2023-07-25T01:59:28.113Z,4.15
2023-07-25T02:02:30.443Z,3.80
2023-07-25T02:05:33.571Z,4.07
2023-07-25T02:08:36.275Z,4.55
2023-07-25T02:11:38.622Z,3.92
2023-07-25T02:14:41.632Z,3.72
2023-07-25T02:17:44.289Z,3.83
2023-07-25T02:20:48.870Z,3.40
2023-07-25T02:23:52.297Z,4.10
2023-07-25T02:26:54.843Z,3.85
2023-07-25T02:30:00.895Z,2.83
2023-07-25T02:33:03.494Z,3.60
2023-07-25T02:36:07.233Z,3.22
2023-07-25T02:39:10.036Z,3.55
2023-07-25T02:42:12.834Z,3.33
2023-07-25T02:45:15.400Z,3.90
2023-07-25T02:48:19.240Z,3.23
2023-07-25T02:51:22.583Z,3.10
2023-07-25T02:54:25.331Z,3.15
2023-07-25T02:57:27.723Z,3.60
2023-07-25T03:00:30.050Z,3.65
2023-07-25T03:03:32.486Z,3.43
2023-07-25T03:06:35.105Z,4.05
2023-07-25T03:09:38.450Z,3.75
2023-07-25T03:12:41.012Z,3.72
2023-07-25T03:15:43.427Z,4.22
2023-07-25T03:18:46.032Z,3.90
2023-07-25T03:21:54.432Z,3.38
2023-07-25T03:24:56.903Z,3.85
2023-07-25T03:27:59.394Z,3.70
2023-07-25T03:31:01.915Z,3.63
2023-07-25T03:34:04.224Z,3.63
2023-07-25T03:37:06.717Z,4.00
2023-07-25T03:40:12.745Z,3.53
2023-07-25T03:43:15.380Z,3.95
2023-07-25T03:46:17.714Z,4.00
2023-07-25T03:49:22.633Z,4.00
2023-07-25T03:52:25.193Z,3.92
2023-07-25T03:55:27.587Z,3.83
2023-07-25T03:58:30.098Z,3.92
2023-07-25T04:01:32.663Z,4.03
2023-07-25T04:04:35.396Z,3.83
2023-07-25T04:07:38.242Z,3.90
2023-07-25T04:10:40.768Z,4.60
2023-07-25T04:13:43.029Z,3.97
2023-07-25T04:16:45.610Z,4.85
2023-07-25T04:19:48.108Z,3.70
2023-07-25T04:22:50.608Z,3.88
2023-07-25T04:25:53.127Z,4.13
2023-07-25T04:28:55.447Z,3.75
2023-07-25T04:31:58.284Z,3.53
2023-07-25T04:35:00.890Z,3.60
2023-07-25T04:38:03.387Z,3.33
2023-07-25T04:41:05.691Z,3.15
2023-07-25T04:44:08.342Z,2.90
2023-07-25T04:47:10.998Z,3.53
2023-07-25T04:50:14.187Z,3.10
2023-07-25T04:53:17.108Z,2.85
2023-07-25T04:56:22.815Z,3.03
2023-07-25T04:59:27.504Z,3.15
2023-07-25T05:02:29.912Z,3.47
2023-07-25T05:05:32.373Z,3.17
2023-07-25T05:08:34.788Z,2.88
2023-07-25T05:11:37.637Z,2.80
2023-07-25T05:14:40.438Z,2.90
2023-07-25T05:17:44.695Z,2.85
2023-07-25T05:20:48.554Z,3.00
2023-07-25T05:23:50.899Z,3.38
2023-07-25T05:26:53.208Z,3.30
2023-07-25T05:29:55.540Z,2.97
2023-07-25T05:32:57.868Z,3.47
2023-07-25T05:36:01.791Z,3.07
2023-07-25T05:39:04.211Z,3.70
2023-07-25T05:42:06.827Z,3.42
2023-07-25T05:45:09.456Z,3.30
2023-07-25T05:48:11.725Z,3.28
2023-07-25T05:51:14.096Z,2.97
2023-07-25T05:54:17.178Z,3.30
2023-07-25T05:57:19.612Z,3.38
2023-07-25T06:00:22.632Z,3.78
2023-07-25T06:03:24.988Z,3.40
2023-07-25T06:06:27.593Z,3.80
2023-07-25T06:09:30.026Z,3.17
2023-07-25T06:12:32.671Z,3.25
2023-07-25T06:15:38.156Z,3.42
2023-07-25T06:18:40.562Z,3.20
2023-07-25T06:21:42.934Z,3.53
2023-07-25T06:24:45.388Z,3.20
2023-07-25T06:27:48.821Z,3.20
2023-07-25T06:30:51.296Z,3.03
2023-07-25T06:33:53.700Z,3.83
2023-07-25T06:36:57.239Z,3.43
2023-07-25T06:40:01.353Z,3.53
2023-07-25T06:43:03.833Z,2.97
2023-07-25T06:46:06.750Z,3.33
2023-07-25T06:49:09.064Z,3.40
2023-07-25T06:52:11.423Z,3.30
2023-07-25T06:55:13.972Z,3.20
2023-07-25T06:58:16.324Z,3.30
2023-07-25T07:01:18.876Z,3.13
2023-07-25T07:04:21.311Z,3.25
2023-07-25T07:07:23.587Z,3.33
2023-07-25T07:10:25.886Z,3.65
2023-07-25T07:13:28.950Z,3.67
2023-07-25T07:16:31.256Z,3.50
2023-07-25T07:19:34.582Z,3.83
2023-07-25T07:22:36.959Z,3.20
2023-07-25T07:25:39.776Z,3.15
2023-07-25T07:28:42.917Z,2.97
2023-07-25T07:31:45.446Z,3.25
2023-07-25T07:34:47.866Z,3.28
2023-07-25T07:37:50.269Z,3.03
2023-07-25T07:40:52.800Z,2.97
2023-07-25T07:43:55.661Z,3.05
2023-07-25T07:46:57.990Z,3.22
2023-07-25T07:50:03.175Z,3.15
2023-07-25T07:53:10.473Z,2.83
2023-07-25T07:56:13.832Z,3.30
2023-07-25T07:59:16.144Z,3.17
2023-07-25T08:02:19.075Z,2.95
2023-07-25T08:05:21.781Z,2.45
2023-07-25T08:08:24.217Z,2.30
2023-07-25T08:11:26.529Z,2.40
2023-07-25T08:14:29.036Z,2.90
2023-07-25T08:17:31.527Z,2.30
2023-07-25T08:20:33.900Z,2.80
2023-07-25T08:23:36.210Z,2.97
2023-07-25T08:26:38.659Z,3.22
2023-07-25T08:29:42.002Z,3.78
2023-07-25T08:32:44.300Z,3.22
2023-07-25T08:35:47.837Z,3.75
2023-07-25T08:38:50.226Z,3.23
2023-07-25T08:41:53.964Z,2.97
2023-07-25T08:44:56.811Z,4.25
2023-07-25T08:48:04.309Z,2.60
2023-07-25T08:51:19.635Z,3.00
2023-07-25T08:54:33.734Z,2.80
2023-07-25T08:57:38.402Z,2.58
2023-07-25T09:00:41.697Z,2.88
2023-07-25T09:03:45.821Z,2.58
2023-07-25T09:06:48.586Z,3.78
2023-07-25T09:09:50.919Z,4.17
2023-07-25T09:12:53.873Z,3.92
2023-07-25T09:15:56.475Z,3.83
2023-07-25T09:18:59.120Z,4.18
2023-07-25T09:22:01.936Z,3.72
2023-07-25T09:25:09.560Z,3.27
2023-07-25T09:28:11.903Z,4.50
2023-07-25T09:31:14.213Z,4.30
2023-07-25T09:34:20.703Z,4.28
2023-07-25T09:37:23.364Z,3.90
2023-07-25T09:40:26.306Z,5.13
2023-07-25T09:43:29.335Z,4.97
2023-07-25T09:46:31.739Z,4.70
2023-07-25T09:49:34.570Z,4.78
2023-07-25T09:52:41.503Z,4.55
2023-07-25T09:55:45.238Z,3.67
2023-07-25T09:59:05.722Z,5.00
2023-07-25T10:02:10.954Z,5.15
2023-07-25T10:05:14.340Z,5.03
2023-07-25T10:08:17.882Z,4.85
2023-07-25T10:11:22.031Z,4.10
2023-07-25T10:14:24.593Z,5.38
2023-07-25T10:17:27.285Z,4.47
2023-07-25T10:20:29.865Z,3.97
2023-07-25T10:23:35.892Z,4.20
2023-07-25T10:26:55.935Z,4.10
2023-07-25T10:30:02.781Z,3.90
2023-07-25T10:33:07.664Z,4.85
2023-07-25T10:36:24.562Z,3.40
2023-07-25T10:39:27.362Z,4.13
2023-07-25T10:43:06.684Z,3.80
2023-07-25T10:46:14.811Z,4.10
2023-07-25T10:49:17.640Z,3.70
2023-07-25T10:52:43.322Z,3.72
2023-07-25T10:56:07.874Z,4.03
2023-07-25T10:59:13.286Z,2.87
2023-07-25T11:02:34.024Z,3.97
2023-07-25T11:05:36.483Z,4.38
2023-07-25T11:08:43.270Z,3.50
2023-07-25T11:11:47.844Z,3.08
2023-07-25T11:14:50.773Z,3.17
2023-07-25T11:17:53.694Z,3.40
2023-07-25T11:21:06.607Z,3.47
2023-07-25T11:24:10.097Z,3.22
2023-07-25T11:27:13.122Z,3.08
2023-07-25T11:30:16.162Z,2.40
2023-07-25T11:33:19.204Z,3.10
2023-07-25T11:36:22.682Z,6.22
2023-07-25T11:39:25.149Z,3.67
2023-07-25T11:42:28.870Z,3.50
2023-07-25T11:45:31.516Z,3.37
2023-07-25T11:48:34.191Z,3.92
2023-07-25T11:51:38.282Z,3.25
2023-07-25T11:54:40.974Z,3.88
2023-07-25T11:57:43.568Z,3.40
2023-07-25T12:00:52.458Z,3.40
2023-07-25T12:03:54.977Z,4.10
2023-07-25T12:07:00.418Z,4.13
2023-07-25T12:10:02.727Z,3.35
2023-07-25T12:13:09.737Z,3.35
2023-07-25T12:16:37.134Z,3.47
2023-07-25T12:19:39.771Z,3.35
2023-07-25T12:22:42.206Z,3.13
2023-07-25T12:25:44.620Z,3.65
2023-07-25T12:28:46.909Z,3.47
2023-07-25T12:31:49.570Z,3.30
2023-07-25T12:34:52.112Z,4.68
2023-07-25T12:37:54.476Z,5.88
2023-07-25T12:40:56.882Z,4.00
2023-07-25T12:44:00.267Z,4.05
2023-07-25T12:47:05.675Z,3.23
2023-07-25T12:50:09.877Z,3.30
2023-07-25T12:53:12.665Z,3.13
2023-07-25T12:56:14.998Z,3.50
2023-07-25T12:59:17.316Z,2.70
2023-07-25T13:02:19.636Z,2.90
2023-07-25T13:05:21.999Z,3.67
2023-07-25T13:08:24.275Z,3.65
2023-07-25T13:11:26.680Z,3.88
2023-07-25T13:14:29.008Z,3.80
2023-07-25T13:17:31.604Z,2.70
2023-07-25T13:20:34.111Z,3.20
2023-07-25T13:23:36.610Z,3.58
2023-07-25T13:26:39.044Z,3.53
2023-07-25T13:29:41.534Z,2.63
2023-07-25T13:32:43.929Z,3.30
2023-07-25T13:35:46.511Z,4.07
2023-07-25T13:38:48.861Z,3.70
2023-07-25T13:41:51.270Z,2.78
2023-07-25T13:44:53.604Z,3.97
2023-07-25T13:47:56.040Z,2.80
2023-07-25T13:50:58.492Z,3.88
2023-07-25T13:54:00.826Z,2.75
2023-07-25T13:57:03.266Z,3.08
2023-07-25T14:00:06.620Z,3.40
2023-07-25T14:03:11.641Z,3.20
2023-07-25T14:06:14.024Z,3.17
2023-07-25T14:09:16.426Z,2.50
2023-07-25T14:12:18.944Z,2.47
2023-07-25T14:15:21.410Z,3.10
2023-07-25T14:18:24.212Z,2.77
2023-07-25T14:21:26.569Z,5.32
2023-07-25T14:24:29.074Z,2.80
2023-07-25T14:27:31.424Z,2.65
2023-07-25T14:30:35.273Z,2.70
2023-07-25T14:33:37.692Z,2.10
2023-07-25T14:36:40.031Z,1.73
2023-07-25T14:39:42.489Z,2.45
2023-07-25T14:42:45.270Z,2.67
2023-07-25T14:45:47.976Z,2.70
2023-07-25T14:48:50.302Z,2.60
2023-07-25T14:51:52.612Z,2.42
2023-07-25T14:54:54.926Z,2.10
2023-07-25T14:57:57.222Z,2.20
2023-07-25T15:00:59.884Z,2.33
2023-07-25T15:04:02.289Z,2.60
2023-07-25T15:07:05.198Z,2.60
2023-07-25T15:10:08.110Z,2.35
2023-07-25T15:13:12.495Z,2.17
2023-07-25T15:16:15.058Z,2.50
2023-07-25T15:19:17.431Z,2.80
2023-07-25T15:22:20.004Z,2.38
2023-07-25T15:25:22.341Z,2.50
2023-07-25T15:28:24.710Z,2.67
2023-07-25T15:31:27.052Z,2.70
2023-07-25T15:34:29.420Z,2.60
2023-07-25T15:37:31.724Z,2.67
2023-07-25T15:40:37.835Z,2.72
2023-07-25T15:43:40.230Z,2.50
2023-07-25T15:46:42.683Z,2.30
2023-07-25T15:49:45.237Z,2.40
2023-07-25T15:52:47.489Z,2.65
2023-07-25T15:55:49.851Z,2.60
2023-07-25T15:58:52.241Z,2.53
2023-07-25T16:01:54.885Z,2.80
2023-07-25T16:04:57.233Z,2.97
2023-07-25T16:08:03.818Z,2.50
2023-07-25T16:11:06.396Z,2.70
2023-07-25T16:14:08.820Z,2.70
2023-07-25T16:17:11.784Z,2.40
2023-07-25T16:20:14.188Z,2.00
2023-07-25T16:23:16.500Z,2.60
2023-07-25T16:26:19.074Z,2.35
2023-07-25T16:29:21.385Z,2.50
2023-07-25T16:32:24.194Z,2.33
2023-07-25T16:35:26.722Z,2.53
2023-07-25T16:38:29.023Z,2.75
2023-07-25T16:41:31.540Z,2.83
2023-07-25T16:44:34.059Z,2.90
2023-07-25T16:47:36.444Z,2.85
2023-07-25T16:50:38.858Z,2.40
2023-07-25T16:53:41.494Z,2.72
2023-07-25T16:56:44.305Z,2.70
2023-07-25T16:59:48.407Z,2.80
2023-07-25T17:02:51.034Z,2.90
2023-07-25T17:05:53.415Z,2.83
2023-07-25T17:08:57.629Z,3.65
2023-07-25T17:12:02.011Z,2.90
2023-07-25T17:15:06.803Z,2.75
2023-07-25T17:18:09.598Z,2.95
2023-07-25T17:21:13.448Z,3.00
2023-07-25T17:24:18.905Z,2.97
2023-07-25T17:27:21.530Z,2.90
2023-07-25T17:30:24.028Z,2.95
2023-07-25T17:33:26.635Z,3.10
2023-07-25T17:36:29.125Z,3.30
2023-07-25T17:39:34.044Z,3.05
2023-07-25T17:42:37.752Z,3.08
2023-07-25T17:45:41.429Z,3.10
2023-07-25T17:48:44.479Z,3.15
2023-07-25T17:51:46.887Z,3.37
2023-07-25T17:54:50.083Z,3.35
2023-07-25T17:57:52.648Z,3.78
2023-07-25T18:00:55.103Z,3.92
2023-07-25T18:03:57.633Z,4.35
2023-07-25T18:07:00.035Z,5.47
2023-07-25T18:10:02.564Z,3.80
2023-07-25T18:13:05.703Z,4.07
2023-07-25T18:16:08.965Z,3.80
2023-07-25T18:19:11.327Z,4.10
2023-07-25T18:22:13.713Z,4.23
2023-07-25T18:25:16.063Z,4.20
2023-07-25T18:28:21.950Z,4.10
2023-07-25T18:31:24.261Z,4.30
2023-07-25T18:34:26.722Z,4.32
2023-07-25T18:37:29.157Z,4.60
2023-07-25T18:40:31.514Z,4.50
2023-07-25T18:43:33.882Z,3.97
2023-07-25T18:46:37.363Z,4.05
2023-07-25T18:49:39.759Z,3.95
2023-07-25T18:52:42.204Z,4.57
2023-07-25T18:55:44.594Z,3.88
2023-07-25T18:58:46.901Z,3.70
2023-07-25T19:01:49.183Z,3.92
2023-07-25T19:04:52.092Z,4.18
2023-07-25T19:07:54.791Z,4.53
2023-07-25T19:10:57.190Z,4.35
2023-07-25T19:13:59.595Z,4.68
2023-07-25T19:17:02.945Z,4.25
2023-07-25T19:20:06.790Z,3.85
2023-07-25T19:23:23.598Z,3.40
2023-07-25T19:26:27.927Z,4.00
2023-07-25T19:29:30.269Z,3.90
2023-07-25T19:32:32.635Z,3.90
2023-07-25T19:35:35.319Z,3.80
2023-07-25T19:38:37.659Z,3.63
2023-07-25T19:41:40.281Z,4.10
2023-07-25T19:44:42.718Z,4.00
2023-07-25T19:47:45.140Z,3.55
2023-07-25T19:50:48.034Z,4.05
2023-07-25T19:53:52.125Z,3.60
2023-07-25T19:56:54.969Z,3.70
2023-07-25T19:59:57.340Z,3.75
2023-07-25T20:02:59.713Z,3.72
2023-07-25T20:06:03.107Z,3.50
2023-07-25T20:09:05.486Z,3.60
2023-07-25T20:12:09.322Z,3.50
2023-07-25T20:15:12.262Z,3.55
2023-07-25T20:18:16.145Z,3.58
2023-07-25T20:21:18.506Z,3.47
2023-07-25T20:24:20.857Z,3.30
2023-07-25T20:27:24.557Z,3.33
2023-07-25T20:30:26.933Z,3.17
2023-07-25T20:33:29.365Z,3.30
2023-07-25T20:36:32.008Z,3.50
2023-07-25T20:39:34.595Z,3.20
2023-07-25T20:42:36.948Z,3.20
2023-07-25T20:45:39.386Z,3.10
2023-07-25T20:48:41.725Z,3.33
2023-07-25T20:51:44.033Z,3.33
2023-07-25T20:54:46.482Z,3.33
2023-07-25T20:57:49.377Z,3.25
2023-07-25T21:00:52.254Z,3.42
2023-07-25T21:03:54.689Z,3.15
2023-07-25T21:06:57.018Z,3.30
2023-07-25T21:09:59.346Z,3.30
2023-07-25T21:13:01.679Z,3.10
2023-07-25T21:16:04.333Z,2.65
2023-07-25T21:19:06.937Z,2.80
2023-07-25T21:22:09.885Z,2.45
2023-07-25T21:25:12.428Z,2.40
2023-07-25T21:28:14.715Z,2.20
2023-07-25T21:31:17.129Z,2.67
2023-07-25T21:34:19.975Z,2.28
2023-07-25T21:37:22.637Z,2.40
2023-07-25T21:40:25.260Z,2.33
2023-07-25T21:43:27.631Z,1.98
2023-07-25T21:46:30.104Z,2.35
2023-07-25T21:49:32.546Z,2.38
2023-07-25T21:52:34.803Z,2.67
2023-07-25T21:55:37.164Z,2.80
2023-07-25T21:58:39.524Z,2.60
2023-07-25T22:01:41.864Z,3.00
2023-07-25T22:04:44.225Z,2.58
2023-07-25T22:07:47.417Z,2.42
2023-07-25T22:10:49.924Z,2.33
2023-07-25T22:13:52.512Z,2.20
2023-07-25T22:16:55.050Z,2.35
2023-07-25T22:19:57.356Z,2.20
2023-07-25T22:22:59.621Z,2.10
2023-07-25T22:26:03.389Z,2.50
2023-07-25T22:29:05.747Z,1.70
2023-07-25T22:32:08.406Z,1.80
2023-07-25T22:35:10.766Z,2.00
2023-07-25T22:38:13.219Z,2.10
2023-07-25T22:41:16.235Z,2.43
2023-07-25T22:44:18.631Z,2.30
2023-07-25T22:47:21.098Z,2.38
2023-07-25T22:50:23.653Z,2.47
2023-07-25T22:53:26.039Z,2.40
2023-07-25T22:56:28.424Z,2.07
2023-07-25T22:59:30.832Z,2.50
2023-07-25T23:02:33.253Z,2.38
2023-07-25T23:05:35.919Z,2.53
2023-07-25T23:08:38.195Z,2.30
2023-07-25T23:11:40.545Z,2.10
2023-07-25T23:14:43.287Z,2.40
2023-07-25T23:17:45.592Z,2.05
2023-07-25T23:20:47.930Z,2.78
2023-07-25T23:23:50.225Z,2.70
2023-07-25T23:26:52.677Z,2.80
2023-07-25T23:29:55.033Z,2.78
2023-07-25T23:32:57.405Z,3.10
2023-07-25T23:36:00.146Z,2.75
2023-07-25T23:39:02.546Z,2.53
2023-07-25T23:42:05.324Z,3.07
2023-07-25T23:45:08.322Z,2.70
2023-07-25T23:48:10.876Z,2.70
2023-07-25T23:51:13.190Z,2.83
2023-07-25T23:54:15.503Z,2.70
2023-07-25T23:57:17.885Z,2.47
